Time;durP1;ratioP1;P1;durP2;ratioP2;P2;SDS_P1;SDS_P2;PMS_P1;PMS_P2;Temp;Humidity;BMP_temperature;BMP_pressure;BME280_temperature;BME280_humidity;BME280_pressure;Samples;Min_cycle;Max_cycle;Signal;HPM_P1;HPM_P2
2022/04/17 00:00:15;;;;;;;15.20;7.97;;;;;;;;;;5033109;28;20050;-81
2022/04/17 00:02:42;;;;;;;11.48;7.78;;;;;;;;;;5033634;28;20040;-82
2022/04/17 00:05:10;;;;;;;12.85;7.38;;;;;;;;;;5030544;28;20045;-82
2022/04/17 00:07:37;;;;;;;12.13;7.45;;;;;;;;;;5030128;28;20064;-83
2022/04/17 00:10:04;;;;;;;17.00;8.57;;;;;;;;;;5028927;28;20050;-81
2022/04/17 00:12:31;;;;;;;17.30;8.20;;;;;;;;;;5042234;22;20052;-79
2022/04/17 00:15:00;;;;;;;11.20;6.97;;;;;;;;;;5038835;28;20100;-79
2022/04/17 00:17:28;;;;;;;13.40;7.07;;;;;;;;;;5039588;28;20072;-79
2022/04/17 00:19:55;;;;;;;13.30;7.53;;;;;;;;;;5040523;28;20056;-79
2022/04/17 00:22:23;;;;;;;12.60;8.02;;;;;;;;;;5041056;28;20049;-79
2022/04/17 00:24:50;;;;;;;12.70;7.60;;;;;;;;;;5039656;28;20045;-79
2022/04/17 00:27:16;;;;;;;13.18;7.57;;;;;;;;;;5040680;28;20099;-79
2022/04/17 00:29:44;;;;;;;13.15;8.13;;;;;;;;;;5041161;28;20496;-79
2022/04/17 00:32:11;;;;;;;14.38;7.53;;;;;;;;;;5041048;28;20069;-79
2022/04/17 00:34:39;;;;;;;12.50;7.72;;;;;;;;;;5037233;28;20045;-79
2022/04/17 00:37:07;;;;;;;13.90;7.80;;;;;;;;;;5041752;28;20125;-79
2022/04/17 00:39:33;;;;;;;10.70;7.43;;;;;;;;;;5044956;28;20068;-79
2022/04/17 00:42:04;;;;;;;12.43;7.90;;;;;;;;;;5044727;28;20088;-79
2022/04/17 00:44:31;;;;;;;10.88;7.40;;;;;;;;;;5043209;28;20129;-79
2022/04/17 00:46:58;;;;;;;11.18;7.63;;;;;;;;;;5039990;28;20180;-78
2022/04/17 00:49:25;;;;;;;12.18;7.40;;;;;;;;;;5037564;28;20053;-78
2022/04/17 00:51:54;;;;;;;12.13;8.32;;;;;;;;;;5049278;28;20075;-78
2022/04/17 00:54:23;;;;;;;12.65;6.90;;;;;;;;;;5054903;28;20072;-79
2022/04/17 00:56:51;;;;;;;13.80;7.88;;;;;;;;;;5057852;28;20030;-81
2022/04/17 00:59:18;;;;;;;10.82;6.93;;;;;;;;;;5042942;28;20045;-79
2022/04/17 01:01:45;;;;;;;10.98;7.05;;;;;;;;;;5038262;28;20496;-79
2022/04/17 01:04:12;;;;;;;12.85;7.45;;;;;;;;;;5038333;28;20072;-78
2022/04/17 01:06:40;;;;;;;11.48;7.60;;;;;;;;;;5038209;28;20119;-79
2022/04/17 01:09:08;;;;;;;12.70;7.28;;;;;;;;;;5038519;28;20095;-79
2022/04/17 01:11:39;;;;;;;12.18;7.50;;;;;;;;;;5038351;28;20493;-79
2022/04/17 01:14:06;;;;;;;;;;;;;;;;;;5038691;28;20405;-80
2022/04/17 01:16:33;;;;;;;11.07;6.93;;;;;;;;;;5037486;28;20012;-79
2022/04/17 01:19:03;;;;;;;14.13;7.70;;;;;;;;;;5037921;28;20462;-80
2022/04/17 01:21:32;;;;;;;10.88;7.38;;;;;;;;;;5040179;28;20041;-79
2022/04/17 01:26:57;;;;;;;14.70;7.70;;;;;;;;;;5038774;28;20124;-79
2022/04/17 01:29:25;;;;;;;13.88;8.40;;;;;;;;;;5038476;28;20095;-79
2022/04/17 01:31:52;;;;;;;13.65;8.15;;;;;;;;;;5038062;28;20057;-79
2022/04/17 01:34:20;;;;;;;12.75;8.15;;;;;;;;;;5038271;28;20049;-80
2022/04/17 01:36:49;;;;;;;13.30;8.52;;;;;;;;;;5038105;28;20045;-80
2022/04/17 01:39:17;;;;;;;15.00;8.52;;;;;;;;;;5038234;28;20053;-80
2022/04/17 01:41:44;;;;;;;18.38;8.13;;;;;;;;;;5039115;28;20049;-80
2022/04/17 01:44:11;;;;;;;15.52;8.40;;;;;;;;;;5037738;28;20132;-80
2022/04/17 01:46:38;;;;;;;14.10;8.15;;;;;;;;;;5036151;28;20053;-80
2022/04/17 01:49:05;;;;;;;15.27;8.50;;;;;;;;;;5036433;28;20056;-80
2022/04/17 01:51:38;;;;;;;12.00;7.45;;;;;;;;;;5036507;28;20045;-79
2022/04/17 01:54:08;;;;;;;12.15;8.18;;;;;;;;;;5036625;28;20071;-79
2022/04/17 01:56:35;;;;;;;13.65;7.75;;;;;;;;;;5036516;28;20045;-79
2022/04/17 01:59:04;;;;;;;13.13;8.15;;;;;;;;;;5037060;28;20045;-80
2022/04/17 02:01:31;;;;;;;13.38;7.80;;;;;;;;;;5037419;28;20128;-79
2022/04/17 02:03:58;;;;;;;12.23;7.93;;;;;;;;;;5036962;28;20091;-80
2022/04/17 02:06:25;;;;;;;11.20;7.65;;;;;;;;;;5037108;28;20045;-79
2022/04/17 02:08:52;;;;;;;13.52;8.32;;;;;;;;;;5036110;28;20053;-79
2022/04/17 02:11:21;;;;;;;14.75;8.80;;;;;;;;;;5036715;28;20114;-79
2022/04/17 02:13:48;;;;;;;13.23;8.13;;;;;;;;;;5035986;28;20056;-79
2022/04/17 02:16:17;;;;;;;13.73;8.55;;;;;;;;;;5036561;28;20049;-79
2022/04/17 02:18:44;;;;;;;17.10;9.70;;;;;;;;;;5037998;28;20049;-79
2022/04/17 02:21:12;;;;;;;14.70;8.90;;;;;;;;;;5037277;28;20095;-79
2022/04/17 02:23:40;;;;;;;16.65;8.80;;;;;;;;;;5037084;28;20041;-80
2022/04/17 02:26:06;;;;;;;14.45;9.15;;;;;;;;;;5036760;28;20088;-79
2022/04/17 02:28:35;;;;;;;15.88;9.13;;;;;;;;;;5037131;28;20108;-80
2022/04/17 02:31:03;;;;;;;14.88;9.25;;;;;;;;;;5037362;28;20099;-79
2022/04/17 02:33:29;;;;;;;12.10;8.02;;;;;;;;;;5037905;28;20046;-79
2022/04/17 02:35:56;;;;;;;15.50;8.75;;;;;;;;;;5037257;28;20080;-79
2022/04/17 02:38:24;;;;;;;14.82;9.95;;;;;;;;;;5035709;28;20042;-80
2022/04/17 02:40:51;;;;;;;13.68;9.07;;;;;;;;;;5035998;28;20049;-79
2022/04/17 02:43:17;;;;;;;13.48;8.52;;;;;;;;;;5036602;28;20049;-80
2022/04/17 02:45:46;;;;;;;14.30;9.05;;;;;;;;;;5041062;28;20049;-80
2022/04/17 02:48:13;;;;;;;13.27;8.75;;;;;;;;;;5037936;28;20050;-79
2022/04/17 02:50:40;;;;;;;13.48;9.32;;;;;;;;;;5038487;28;20137;-80
2022/04/17 02:53:07;;;;;;;14.38;9.00;;;;;;;;;;5037842;28;20048;-79
2022/04/17 02:55:34;;;;;;;13.60;8.50;;;;;;;;;;5044689;28;20037;-81
2022/04/17 02:58:01;;;;;;;14.23;8.80;;;;;;;;;;5050276;28;20049;-81
2022/04/17 03:00:28;;;;;;;13.55;9.32;;;;;;;;;;5049892;28;20041;-79
2022/04/17 03:05:41;;;;;;;16.90;9.65;;;;;;;;;;5049881;28;20523;-80
2022/04/17 03:08:10;;;;;;;15.25;9.65;;;;;;;;;;5048006;28;20574;-81
2022/04/17 03:10:38;;;;;;;14.63;9.00;;;;;;;;;;5049501;28;20057;-79
2022/04/17 03:13:05;;;;;;;14.73;9.43;;;;;;;;;;5047706;28;20455;-79
2022/04/17 03:15:32;;;;;;;15.82;9.73;;;;;;;;;;5048114;28;20057;-80
2022/04/17 03:18:01;;;;;;;18.08;9.43;;;;;;;;;;5055543;28;20029;-78
2022/04/17 03:20:28;;;;;;;15.05;9.20;;;;;;;;;;5055739;28;20033;-79
2022/04/17 03:22:55;;;;;;;15.18;9.57;;;;;;;;;;5055998;28;20052;-79
2022/04/17 03:25:22;;;;;;;14.38;9.43;;;;;;;;;;5055097;28;20085;-80
2022/04/17 03:27:48;;;;;;;14.05;8.90;;;;;;;;;;5056406;28;20037;-80
2022/04/17 03:30:16;;;;;;;15.68;9.82;;;;;;;;;;5056156;28;20061;-80
2022/04/17 03:32:44;;;;;;;17.30;9.90;;;;;;;;;;5053147;28;20060;-81
2022/04/17 03:35:13;;;;;;;15.23;9.88;;;;;;;;;;5054184;28;20149;-80
2022/04/17 03:37:42;;;;;;;15.23;8.63;;;;;;;;;;5054747;28;20045;-80
2022/04/17 03:40:10;;;;;;;16.52;9.85;;;;;;;;;;5054519;28;20077;-79
2022/04/17 03:42:37;;;;;;;16.55;9.75;;;;;;;;;;5054235;28;20056;-80
2022/04/17 03:45:05;;;;;;;16.10;9.77;;;;;;;;;;5051959;28;20057;-79
2022/04/17 03:47:32;;;;;;;15.90;9.48;;;;;;;;;;5032473;28;20054;-80
2022/04/17 03:50:00;;;;;;;16.25;9.32;;;;;;;;;;5031051;28;20046;-78
2022/04/17 03:52:38;;;;;;;13.93;9.32;;;;;;;;;;5035580;28;20108;-80
2022/04/17 03:55:05;;;;;;;16.08;10.05;;;;;;;;;;5035746;28;20050;-79
2022/04/17 03:57:33;;;;;;;16.35;9.50;;;;;;;;;;5036130;28;20137;-78
2022/04/17 03:59:59;;;;;;;18.95;10.15;;;;;;;;;;5024017;28;20046;-79
2022/04/17 04:02:28;;;;;;;17.45;10.07;;;;;;;;;;5020604;28;20237;-79
2022/04/17 04:04:55;;;;;;;15.85;9.07;;;;;;;;;;5034669;28;20054;-79
2022/04/17 04:07:21;;;;;;;15.10;8.88;;;;;;;;;;5033160;28;20046;-79
2022/04/17 04:09:50;;;;;;;13.48;9.32;;;;;;;;;;5029129;28;20058;-80
2022/04/17 04:12:17;;;;;;;14.77;9.00;;;;;;;;;;5030666;28;20061;-80
2022/04/17 04:14:43;;;;;;;17.42;9.52;;;;;;;;;;5028651;28;20049;-81
2022/04/17 04:17:10;;;;;;;12.82;9.15;;;;;;;;;;5027873;28;20050;-80
2022/04/17 04:19:37;;;;;;;14.85;9.20;;;;;;;;;;5025447;28;20493;-81
2022/04/17 04:22:05;;;;;;;13.20;8.65;;;;;;;;;;5023269;28;20050;-81
2022/04/17 04:24:32;;;;;;;12.80;8.88;;;;;;;;;;5026056;28;20078;-79
2022/04/17 04:29:44;;;;;;;15.65;9.43;;;;;;;;;;5023095;28;20065;-81
2022/04/17 04:32:11;;;;;;;14.55;9.00;;;;;;;;;;5022820;28;20046;-81
2022/04/17 04:34:38;;;;;;;12.35;7.80;;;;;;;;;;5023513;28;20137;-81
2022/04/17 04:37:05;;;;;;;12.18;8.32;;;;;;;;;;5022781;28;20046;-81
2022/04/17 04:39:32;;;;;;;14.15;8.98;;;;;;;;;;5026602;28;20522;-80
2022/04/17 04:42:00;;;;;;;13.77;8.80;;;;;;;;;;5023425;28;20117;-81
2022/04/17 04:44:27;;;;;;;12.30;8.32;;;;;;;;;;5032533;28;20062;-80
2022/04/17 04:46:53;;;;;;;11.45;8.27;;;;;;;;;;5034954;28;20046;-80
2022/04/17 04:49:32;;;;;;;13.85;8.50;;;;;;;;;;5035454;28;20110;-81
2022/04/17 04:52:00;;;;;;;12.65;8.10;;;;;;;;;;5031310;28;20061;-81
2022/04/17 04:54:27;;;;;;;14.25;8.82;;;;;;;;;;5023577;28;20046;-82
2022/04/17 04:56:54;;;;;;;13.35;9.00;;;;;;;;;;5021397;28;20105;-82
2022/04/17 04:59:23;;;;;;;13.43;8.43;;;;;;;;;;5021650;28;20073;-82
2022/04/17 05:01:50;;;;;;;13.70;8.80;;;;;;;;;;5020490;28;20048;-82
2022/04/17 05:04:18;;;;;;;16.27;8.95;;;;;;;;;;5020693;28;20132;-79
2022/04/17 05:06:45;;;;;;;14.98;8.23;;;;;;;;;;5017226;28;20058;-80
2022/04/17 05:09:12;;;;;;;13.18;8.18;;;;;;;;;;5018139;28;20103;-79
2022/04/17 05:11:39;;;;;;;13.13;7.80;;;;;;;;;;5023727;28;20053;-79
2022/04/17 05:14:09;;;;;;;13.45;9.13;;;;;;;;;;5020321;28;20057;-81
2022/04/17 05:16:37;;;;;;;12.23;7.60;;;;;;;;;;5018796;28;20092;-79
2022/04/17 05:19:20;;;;;;;11.88;7.78;;;;;;;;;;5018041;28;20112;-80
2022/04/17 05:21:48;;;;;;;12.05;8.10;;;;;;;;;;5018561;28;20077;-81
2022/04/17 05:24:15;;;;;;;15.38;8.98;;;;;;;;;;5018093;28;20057;-81
2022/04/17 05:26:42;;;;;;;13.60;7.85;;;;;;;;;;5016370;28;20053;-81
2022/04/17 05:29:09;;;;;;;12.60;7.97;;;;;;;;;;5016655;28;20505;-79
2022/04/17 05:31:38;;;;;;;14.90;8.50;;;;;;;;;;5016591;28;20046;-80
2022/04/17 05:34:05;;;;;;;12.52;8.00;;;;;;;;;;5017837;28;20069;-81
2022/04/17 05:36:31;;;;;;;15.00;8.45;;;;;;;;;;5039671;28;20045;-84
2022/04/17 05:38:58;;;;;;;13.25;7.78;;;;;;;;;;5039094;28;20042;-80
2022/04/17 05:41:27;;;;;;;12.57;8.55;;;;;;;;;;5018529;28;20061;-79
2022/04/17 05:43:56;;;;;;;12.63;8.07;;;;;;;;;;5019284;28;20460;-79
2022/04/17 05:46:23;;;;;;;12.13;7.85;;;;;;;;;;5016395;28;20054;-80
2022/04/17 05:48:51;;;;;;;11.68;7.60;;;;;;;;;;5016207;28;20046;-81
2022/04/17 05:51:18;;;;;;;11.88;7.50;;;;;;;;;;5016270;28;20092;-80
2022/04/17 05:53:45;;;;;;;13.10;7.35;;;;;;;;;;5017894;28;20054;-81
2022/04/17 05:56:12;;;;;;;12.13;7.55;;;;;;;;;;5016746;28;20509;-80
2022/04/17 05:58:39;;;;;;;11.73;7.53;;;;;;;;;;5019927;28;20042;-82
2022/04/17 06:01:06;;;;;;;10.68;7.20;;;;;;;;;;5020498;28;20408;-81
2022/04/17 06:03:33;;;;;;;10.80;6.97;;;;;;;;;;5021553;28;20114;-82
2022/04/17 06:06:01;;;;;;;11.23;6.70;;;;;;;;;;5020748;28;20485;-80
2022/04/17 06:08:28;;;;;;;11.27;6.70;;;;;;;;;;5020715;28;20108;-81
2022/04/17 06:10:55;;;;;;;10.73;6.60;;;;;;;;;;5021010;28;20053;-80
2022/04/17 06:13:21;;;;;;;11.48;8.18;;;;;;;;;;5020828;28;20079;-81
2022/04/17 06:15:48;;;;;;;12.77;7.30;;;;;;;;;;5042953;22;20053;-69
2022/04/17 06:18:15;;;;;;;10.48;6.78;;;;;;;;;;5013793;28;20052;-70
2022/04/17 06:20:43;;;;;;;11.43;7.13;;;;;;;;;;5000536;28;20053;-70
2022/04/17 06:23:13;;;;;;;9.65;6.68;;;;;;;;;;4994314;28;20380;-69
2022/04/17 06:25:39;;;;;;;11.80;7.10;;;;;;;;;;4994232;28;20115;-69
2022/04/17 06:28:07;;;;;;;10.57;6.38;;;;;;;;;;4994148;28;20050;-68
2022/04/17 06:30:34;;;;;;;9.65;6.60;;;;;;;;;;4993984;28;20053;-69
2022/04/17 06:33:01;;;;;;;11.43;7.10;;;;;;;;;;4993086;28;20515;-69
2022/04/17 06:35:28;;;;;;;9.93;6.72;;;;;;;;;;4993985;28;20073;-70
2022/04/17 06:37:57;;;;;;;12.90;8.15;;;;;;;;;;4993843;28;20056;-70
2022/04/17 06:40:27;;;;;;;11.40;7.18;;;;;;;;;;4993788;28;20487;-70
2022/04/17 06:42:56;;;;;;;9.15;6.72;;;;;;;;;;4993910;28;20148;-69
2022/04/17 06:45:24;;;;;;;10.40;6.60;;;;;;;;;;4998959;28;20046;-69
2022/04/17 06:47:51;;;;;;;14.02;7.43;;;;;;;;;;5013245;28;20257;-70
2022/04/17 06:50:20;;;;;;;9.65;6.65;;;;;;;;;;5013299;28;20056;-69
2022/04/17 06:52:47;;;;;;;12.27;7.90;;;;;;;;;;5013555;28;20107;-70
2022/04/17 06:55:14;;;;;;;12.05;8.25;;;;;;;;;;5013019;28;20050;-69
2022/04/17 06:57:47;;;;;;;15.07;7.78;;;;;;;;;;5013658;28;20046;-68
2022/04/17 07:00:15;;;;;;;10.18;6.47;;;;;;;;;;5013919;28;20388;-70
2022/04/17 07:02:43;;;;;;;9.25;6.45;;;;;;;;;;5013307;28;20046;-69
2022/04/17 07:05:11;;;;;;;10.02;6.50;;;;;;;;;;5013498;28;20049;-70
2022/04/17 07:07:38;;;;;;;9.98;6.18;;;;;;;;;;5013070;28;20046;-69
2022/04/17 07:10:06;;;;;;;10.80;6.13;;;;;;;;;;5013765;28;20050;-70
2022/04/17 07:12:34;;;;;;;11.82;8.13;;;;;;;;;;5013099;28;20098;-69
2022/04/17 07:15:05;;;;;;;10.68;7.43;;;;;;;;;;5013187;28;20058;-70
2022/04/17 07:17:36;;;;;;;11.00;6.78;;;;;;;;;;5013768;28;20049;-69
2022/04/17 07:20:05;;;;;;;9.43;6.03;;;;;;;;;;5013674;28;20054;-69
2022/04/17 07:22:32;;;;;;;9.63;6.07;;;;;;;;;;5013263;28;20132;-69
2022/04/17 07:25:01;;;;;;;8.60;5.63;;;;;;;;;;5013272;28;20046;-69
2022/04/17 07:27:28;;;;;;;8.80;5.53;;;;;;;;;;5012781;28;20060;-69
2022/04/17 07:29:55;;;;;;;11.35;5.78;;;;;;;;;;5013078;28;20057;-69
2022/04/17 07:32:25;;;;;;;8.30;5.20;;;;;;;;;;5013104;28;20050;-70
2022/04/17 07:34:52;;;;;;;8.73;5.43;;;;;;;;;;5013592;28;20141;-69
2022/04/17 07:37:26;;;;;;;8.93;5.28;;;;;;;;;;5013223;28;20357;-69
2022/04/17 07:39:53;;;;;;;8.35;5.68;;;;;;;;;;5013055;28;20057;-69
2022/04/17 07:42:21;;;;;;;7.03;4.93;;;;;;;;;;5013117;28;20053;-70
2022/04/17 07:44:49;;;;;;;7.93;5.78;;;;;;;;;;5012776;28;20120;-69
2022/04/17 07:47:17;;;;;;;8.60;5.43;;;;;;;;;;5013021;28;20061;-69
2022/04/17 07:49:45;;;;;;;7.70;5.20;;;;;;;;;;5012582;28;20103;-70
2022/04/17 07:52:12;;;;;;;6.25;4.68;;;;;;;;;;5012987;28;20057;-70
2022/04/17 07:54:40;;;;;;;7.35;4.65;;;;;;;;;;5012152;28;20054;-70
2022/04/17 07:57:13;;;;;;;8.00;5.32;;;;;;;;;;5013011;28;20046;-71
2022/04/17 07:59:40;;;;;;;7.70;5.07;;;;;;;;;;5012596;28;20050;-70
2022/04/17 08:02:22;;;;;;;9.50;6.25;;;;;;;;;;5012417;28;20061;-70
2022/04/17 08:04:51;;;;;;;7.43;4.70;;;;;;;;;;5012104;28;20466;-70
2022/04/17 08:07:19;;;;;;;7.30;4.65;;;;;;;;;;5012784;28;20049;-70
2022/04/17 08:09:46;;;;;;;8.38;5.28;;;;;;;;;;5012588;28;20104;-70
2022/04/17 08:12:13;;;;;;;7.45;5.20;;;;;;;;;;5012216;28;20494;-70
2022/04/17 08:14:40;;;;;;;7.65;4.32;;;;;;;;;;5012037;28;20767;-71
2022/04/17 08:17:07;;;;;;;7.45;5.10;;;;;;;;;;5013002;28;20473;-70
2022/04/17 08:19:35;;;;;;;7.07;4.15;;;;;;;;;;5012041;28;20141;-69
2022/04/17 08:22:04;;;;;;;7.40;4.70;;;;;;;;;;5011956;28;20057;-70
2022/04/17 08:24:32;;;;;;;7.47;4.82;;;;;;;;;;5011875;28;20050;-69
2022/04/17 08:27:00;;;;;;;7.20;4.88;;;;;;;;;;5011796;28;20054;-69
2022/04/17 08:29:26;;;;;;;7.60;4.15;;;;;;;;;;5011742;28;20056;-69
2022/04/17 08:31:54;;;;;;;7.45;4.93;;;;;;;;;;5012043;28;20056;-70
2022/04/17 08:34:21;;;;;;;7.90;5.07;;;;;;;;;;5011782;28;20050;-70
2022/04/17 08:36:48;;;;;;;7.05;5.38;;;;;;;;;;5011748;28;20054;-70
2022/04/17 08:39:17;;;;;;;6.82;5.00;;;;;;;;;;5012040;28;20414;-70
2022/04/17 08:41:45;;;;;;;7.75;5.30;;;;;;;;;;5011755;28;20108;-69
2022/04/17 08:44:12;;;;;;;8.60;5.53;;;;;;;;;;5011834;28;20582;-69
2022/04/17 08:46:39;;;;;;;6.95;5.50;;;;;;;;;;5011949;28;20418;-70
2022/04/17 08:49:07;;;;;;;11.23;5.45;;;;;;;;;;5012222;28;20045;-69
2022/04/17 08:51:35;;;;;;;9.07;6.32;;;;;;;;;;5012008;28;20053;-69
2022/04/17 08:54:03;;;;;;;9.15;5.32;;;;;;;;;;5012084;28;20406;-70
2022/04/17 08:56:31;;;;;;;7.93;4.90;;;;;;;;;;5013652;28;20483;-70
2022/04/17 08:59:00;;;;;;;7.35;5.50;;;;;;;;;;5015536;28;20114;-70
2022/04/17 09:01:27;;;;;;;7.35;5.22;;;;;;;;;;5015482;28;20425;-70
2022/04/17 09:03:54;;;;;;;17.23;11.98;;;;;;;;;;5015186;28;20046;-70
2022/04/17 09:06:22;;;;;;;10.73;6.05;;;;;;;;;;5015120;28;20136;-70
2022/04/17 09:08:59;;;;;;;8.95;5.65;;;;;;;;;;5015052;28;20054;-70
2022/04/17 09:11:27;;;;;;;8.63;5.80;;;;;;;;;;5015122;28;20487;-70
2022/04/17 09:14:01;;;;;;;11.10;5.68;;;;;;;;;;5014897;28;20392;-70
2022/04/17 09:16:30;;;;;;;7.88;5.60;;;;;;;;;;5014838;28;20061;-70
2022/04/17 09:18:58;;;;;;;8.00;5.38;;;;;;;;;;5014868;28;20054;-69
2022/04/17 09:21:33;;;;;;;7.93;4.95;;;;;;;;;;5014724;28;20589;-70
2022/04/17 09:24:18;;;;;;;7.15;4.55;;;;;;;;;;5014670;28;20096;-70
2022/04/17 09:26:53;;;;;;;9.15;5.45;;;;;;;;;;5014834;28;20056;-70
2022/04/17 09:29:24;;;;;;;7.38;5.05;;;;;;;;;;5014766;28;20057;-69
2022/04/17 09:32:01;;;;;;;7.82;5.50;;;;;;;;;;5015162;28;20046;-70
2022/04/17 09:34:29;;;;;;;8.27;5.13;;;;;;;;;;5014936;28;20041;-69
2022/04/17 09:36:58;;;;;;;8.38;5.05;;;;;;;;;;5014410;28;20056;-69
2022/04/17 09:39:30;;;;;;;7.82;5.70;;;;;;;;;;5011613;28;20475;-69
2022/04/17 09:41:59;;;;;;;8.10;5.22;;;;;;;;;;5003166;28;20490;-72
2022/04/17 09:44:47;;;;;;;7.93;5.40;;;;;;;;;;5014379;28;20054;-69
2022/04/17 09:47:16;;;;;;;8.77;5.63;;;;;;;;;;4994824;28;20054;-69
2022/04/17 09:50:00;;;;;;;7.80;4.63;;;;;;;;;;4994982;28;20050;-69
2022/04/17 09:52:28;;;;;;;6.70;4.25;;;;;;;;;;4994188;28;20492;-69
2022/04/17 09:54:56;;;;;;;6.95;4.55;;;;;;;;;;4994563;28;20058;-69
2022/04/17 09:57:30;;;;;;;8.82;5.13;;;;;;;;;;4994728;28;20058;-69
2022/04/17 10:00:07;;;;;;;7.93;5.50;;;;;;;;;;4994560;28;20137;-69
2022/04/17 10:02:35;;;;;;;6.10;4.38;;;;;;;;;;4994533;28;20050;-69
2022/04/17 10:05:03;;;;;;;6.63;4.43;;;;;;;;;;4993947;28;20047;-70
2022/04/17 10:07:31;;;;;;;6.90;4.78;;;;;;;;;;4994533;28;20089;-70
2022/04/17 10:09:58;;;;;;;7.00;4.97;;;;;;;;;;4994396;28;20058;-69
2022/04/17 10:12:27;;;;;;;7.25;4.65;;;;;;;;;;4994233;28;20054;-69
2022/04/17 10:14:56;;;;;;;8.07;5.45;;;;;;;;;;4993929;28;20050;-70
2022/04/17 10:17:24;;;;;;;8.45;5.10;;;;;;;;;;4994339;28;20047;-70
2022/04/17 10:19:52;;;;;;;7.75;4.95;;;;;;;;;;4993966;28;20046;-70
2022/04/17 10:22:20;;;;;;;7.28;5.07;;;;;;;;;;4994586;28;20055;-69
2022/04/17 10:24:52;;;;;;;8.98;5.10;;;;;;;;;;4994390;28;20520;-69
2022/04/17 10:27:24;;;;;;;7.38;5.13;;;;;;;;;;4994525;28;20050;-69
2022/04/17 10:29:57;;;;;;;7.15;5.55;;;;;;;;;;4993873;28;20065;-69
2022/04/17 10:33:08;;;;;;;7.10;4.70;;;;;;;;;;4994523;28;20057;-70
2022/04/17 10:35:49;;;;;;;6.10;4.63;;;;;;;;;;4995006;28;20574;-69
2022/04/17 10:38:27;;;;;;;6.05;4.43;;;;;;;;;;4993943;28;20054;-69
2022/04/17 10:40:57;;;;;;;7.93;4.90;;;;;;;;;;4993867;28;20496;-69
2022/04/17 10:43:25;;;;;;;6.70;4.95;;;;;;;;;;4993683;28;20050;-69
2022/04/17 10:46:08;;;;;;;7.38;5.20;;;;;;;;;;4993618;28;20136;-70
2022/04/17 10:48:47;;;;;;;7.10;5.13;;;;;;;;;;4993876;28;20051;-69
2022/04/17 10:51:22;;;;;;;9.13;4.65;;;;;;;;;;4993668;28;20060;-69
2022/04/17 10:54:07;;;;;;;7.75;4.65;;;;;;;;;;4993737;28;20137;-69
2022/04/17 10:56:36;;;;;;;10.38;5.40;;;;;;;;;;4993340;28;20050;-69
2022/04/17 10:59:06;;;;;;;7.80;5.40;;;;;;;;;;4993628;28;20056;-69
2022/04/17 11:02:05;;;;;;;7.15;5.13;;;;;;;;;;4993816;28;20108;-70
2022/04/17 11:04:40;;;;;;;8.82;6.65;;;;;;;;;;4933746;29;20055;-69
2022/04/17 11:07:29;;;;;;;7.43;4.65;;;;;;;;;;4984047;28;20082;-67
2022/04/17 11:10:09;;;;;;;7.70;5.28;;;;;;;;;;4993279;28;20108;-67
2022/04/17 11:12:47;;;;;;;7.53;5.17;;;;;;;;;;4993895;28;20046;-66
2022/04/17 11:15:25;;;;;;;7.82;5.63;;;;;;;;;;4992893;28;20046;-66
2022/04/17 11:17:53;;;;;;;23.77;13.02;;;;;;;;;;4993220;28;20046;-69
2022/04/17 11:20:22;;;;;;;73.88;51.10;;;;;;;;;;4993294;28;20548;-66
2022/04/17 11:22:49;;;;;;;36.35;23.00;;;;;;;;;;4993364;28;20101;-66
2022/04/17 11:25:16;;;;;;;9.35;5.50;;;;;;;;;;4993428;28;20133;-67
2022/04/17 11:27:48;;;;;;;7.40;5.05;;;;;;;;;;4994911;28;20392;-71
2022/04/17 11:30:35;;;;;;;7.88;5.53;;;;;;;;;;4993419;28;20054;-70
2022/04/17 11:33:04;;;;;;;8.43;5.35;;;;;;;;;;4993427;28;20060;-73
2022/04/17 11:35:32;;;;;;;9.73;6.20;;;;;;;;;;4993288;28;20519;-74
2022/04/17 11:38:05;;;;;;;8.30;4.72;;;;;;;;;;4993383;28;20385;-70
2022/04/17 11:40:35;;;;;;;7.90;4.65;;;;;;;;;;4993348;28;20129;-68
2022/04/17 11:43:12;;;;;;;10.35;6.45;;;;;;;;;;4993735;28;20058;-73
2022/04/17 11:45:40;;;;;;;9.32;5.82;;;;;;;;;;4993645;28;20060;-70
2022/04/17 11:48:09;;;;;;;8.35;5.70;;;;;;;;;;4993008;28;20086;-66
2022/04/17 11:50:39;;;;;;;6.10;4.45;;;;;;;;;;4993605;28;20052;-67
2022/04/17 11:53:10;;;;;;;7.07;4.72;;;;;;;;;;4993580;28;20062;-67
2022/04/17 11:55:39;;;;;;;6.45;4.75;;;;;;;;;;4993494;28;20521;-67
2022/04/17 11:58:10;;;;;;;6.95;4.90;;;;;;;;;;4993658;28;20050;-67
2022/04/17 12:00:38;;;;;;;7.07;4.93;;;;;;;;;;4993602;28;20065;-68
2022/04/17 12:03:07;;;;;;;6.32;4.85;;;;;;;;;;4993038;28;20081;-67
2022/04/17 12:05:36;;;;;;;6.57;5.00;;;;;;;;;;4993563;28;20492;-67
2022/04/17 12:08:10;;;;;;;7.03;4.65;;;;;;;;;;4993418;28;20140;-67
2022/04/17 12:10:40;;;;;;;6.40;4.57;;;;;;;;;;4993497;28;20436;-68
2022/04/17 12:13:19;;;;;;;7.00;4.60;;;;;;;;;;4993836;28;20054;-67
2022/04/17 12:15:49;;;;;;;6.25;4.15;;;;;;;;;;4993093;28;20392;-67
2022/04/17 12:18:20;;;;;;;5.80;4.38;;;;;;;;;;4993087;28;20554;-67
2022/04/17 12:21:02;;;;;;;7.93;4.43;;;;;;;;;;4992736;28;20062;-67
2022/04/17 12:23:32;;;;;;;5.88;4.22;;;;;;;;;;4992845;28;20058;-67
2022/04/17 12:26:01;;;;;;;6.40;3.60;;;;;;;;;;4992857;28;20054;-68
2022/04/17 12:28:29;;;;;;;5.88;3.85;;;;;;;;;;4992949;28;20065;-67
2022/04/17 12:30:56;;;;;;;5.78;3.70;;;;;;;;;;4994089;28;20054;-67
2022/04/17 12:33:24;;;;;;;5.47;3.72;;;;;;;;;;4997279;28;20168;-67
2022/04/17 12:36:05;;;;;;;5.25;3.72;;;;;;;;;;4996982;28;20058;-68
2022/04/17 12:38:34;;;;;;;6.97;4.35;;;;;;;;;;4996722;28;20555;-67
2022/04/17 12:41:01;;;;;;;5.43;3.47;;;;;;;;;;4996132;28;20054;-68
2022/04/17 12:43:30;;;;;;;7.00;3.63;;;;;;;;;;4996423;28;20566;-67
2022/04/17 12:46:00;;;;;;;6.97;3.80;;;;;;;;;;4996452;28;20054;-67
2022/04/17 12:48:29;;;;;;;6.65;3.47;;;;;;;;;;4996508;28;20054;-67
2022/04/17 12:51:00;;;;;;;5.20;3.35;;;;;;;;;;4994990;28;20141;-68
2022/04/17 12:53:35;;;;;;;5.95;3.75;;;;;;;;;;4996048;28;20058;-68
2022/04/17 12:56:02;;;;;;;5.25;3.60;;;;;;;;;;4995914;28;20118;-68
2022/04/17 12:58:29;;;;;;;6.93;3.50;;;;;;;;;;4995932;28;20046;-67
2022/04/17 13:00:57;;;;;;;5.35;3.10;;;;;;;;;;4995952;28;20419;-68
2022/04/17 13:03:35;;;;;;;4.88;3.03;;;;;;;;;;4995994;28;20125;-67
2022/04/17 13:06:05;;;;;;;4.68;3.05;;;;;;;;;;4996130;28;20100;-67
2022/04/17 13:08:37;;;;;;;5.88;3.85;;;;;;;;;;5029749;23;20048;-80
2022/04/17 13:11:22;;;;;;;6.10;3.97;;;;;;;;;;5018869;28;20045;-79
2022/04/17 13:13:52;;;;;;;4.68;3.08;;;;;;;;;;5023692;28;20041;-80
2022/04/17 13:16:19;;;;;;;7.82;3.78;;;;;;;;;;5021109;28;20034;-80
2022/04/17 13:18:46;;;;;;;5.57;3.20;;;;;;;;;;5015355;28;21259;-82
2022/04/17 13:21:13;;;;;;;6.45;3.85;;;;;;;;;;5005882;28;20042;-80
2022/04/17 13:23:46;;;;;;;5.90;3.70;;;;;;;;;;5004504;28;20046;-80
2022/04/17 13:26:15;;;;;;;6.20;3.90;;;;;;;;;;5003343;28;20073;-80
2022/04/17 13:28:41;;;;;;;6.43;3.70;;;;;;;;;;5006638;28;20046;-80
2022/04/17 13:31:12;;;;;;;5.13;3.42;;;;;;;;;;5008366;28;20462;-80
2022/04/17 13:33:42;;;;;;;4.90;3.63;;;;;;;;;;5014171;28;20049;-81
2022/04/17 13:36:09;;;;;;;5.78;3.55;;;;;;;;;;4999507;28;20104;-81
2022/04/17 13:38:37;;;;;;;5.50;3.50;;;;;;;;;;5003293;28;20038;-81
2022/04/17 13:41:08;;;;;;;5.68;3.90;;;;;;;;;;5016992;28;20092;-80
2022/04/17 13:43:35;;;;;;;6.80;4.78;;;;;;;;;;5003151;28;20048;-79
2022/04/17 13:46:02;;;;;;;6.57;3.70;;;;;;;;;;5011384;28;20054;-78
2022/04/17 13:48:32;;;;;;;4.88;3.22;;;;;;;;;;5019919;28;20463;-81
2022/04/17 13:51:03;;;;;;;5.20;3.60;;;;;;;;;;5017890;28;20045;-82
2022/04/17 13:53:29;;;;;;;4.38;3.03;;;;;;;;;;5027766;28;20049;-80
2022/04/17 13:55:56;;;;;;;6.15;3.00;;;;;;;;;;5005797;28;20097;-81
2022/04/17 13:58:25;;;;;;;4.32;2.78;;;;;;;;;;5018882;28;20137;-80
2022/04/17 14:00:52;;;;;;;5.72;3.75;;;;;;;;;;5007945;28;20073;-82
2022/04/17 14:03:19;;;;;;;5.10;3.90;;;;;;;;;;5010307;28;20104;-79
2022/04/17 14:05:50;;;;;;;6.30;3.63;;;;;;;;;;5011788;28;20108;-82
2022/04/17 14:08:17;;;;;;;6.38;3.88;;;;;;;;;;5019714;28;20113;-81
2022/04/17 14:10:44;;;;;;;5.90;3.60;;;;;;;;;;5019758;28;20050;-79
2022/04/17 14:13:13;;;;;;;4.57;2.83;;;;;;;;;;5018335;28;20057;-79
2022/04/17 14:15:41;;;;;;;4.00;2.85;;;;;;;;;;5013883;28;20046;-80
2022/04/17 14:18:08;;;;;;;4.47;2.83;;;;;;;;;;5006113;28;20042;-79
2022/04/17 14:20:35;;;;;;;5.43;3.03;;;;;;;;;;5005046;28;20050;-80
2022/04/17 14:23:02;;;;;;;4.88;2.95;;;;;;;;;;5005416;28;20046;-80
2022/04/17 14:25:28;;;;;;;3.90;2.80;;;;;;;;;;4999286;28;20065;-80
2022/04/17 14:27:55;;;;;;;5.03;3.60;;;;;;;;;;4999397;28;20046;-80
2022/04/17 14:30:35;;;;;;;5.03;3.45;;;;;;;;;;5000553;28;20052;-80
2022/04/17 14:33:03;;;;;;;5.55;3.42;;;;;;;;;;5018387;28;20052;-79
2022/04/17 14:35:30;;;;;;;8.88;4.97;;;;;;;;;;5018620;28;20050;-81
2022/04/17 14:37:56;;;;;;;5.15;3.35;;;;;;;;;;5005295;28;20046;-80
2022/04/17 14:40:23;;;;;;;5.28;3.53;;;;;;;;;;4997761;28;20465;-81
2022/04/17 14:42:50;;;;;;;5.05;3.08;;;;;;;;;;4998005;28;20058;-81
2022/04/17 14:45:28;;;;;;;6.40;3.20;;;;;;;;;;4997507;28;20163;-79
2022/04/17 14:47:56;;;;;;;6.35;3.55;;;;;;;;;;4997577;28;20560;-81
2022/04/17 14:50:25;;;;;;;6.13;4.25;;;;;;;;;;4998215;28;20047;-80
2022/04/17 14:52:54;;;;;;;5.35;3.35;;;;;;;;;;4997668;28;20050;-81
2022/04/17 14:55:21;;;;;;;5.38;3.53;;;;;;;;;;4997659;28;20560;-80